createdAt,value
2023-05-05T00:02:21.555Z,4.72
2023-05-05T00:04:49.681Z,4.28
2023-05-05T00:07:17.749Z,5.90
2023-05-05T00:09:45.919Z,5.57
2023-05-05T00:12:14.179Z,6.28
2023-05-05T00:14:42.630Z,4.50
2023-05-05T00:17:10.786Z,5.40
2023-05-05T00:19:39.035Z,4.57
2023-05-05T00:22:07.340Z,5.10
2023-05-05T00:24:35.640Z,5.90
2023-05-05T00:27:03.844Z,5.15
2023-05-05T00:29:32.000Z,6.97
2023-05-05T00:32:00.231Z,6.45
2023-05-05T00:34:28.413Z,7.55
2023-05-05T00:36:56.570Z,8.93
2023-05-05T00:39:24.819Z,6.15
2023-05-05T00:41:53.047Z,6.03
2023-05-05T00:44:39.802Z,4.88
2023-05-05T00:47:09.831Z,5.28
2023-05-05T00:49:38.765Z,5.47
2023-05-05T00:52:07.534Z,3.95
2023-05-05T00:54:36.300Z,5.45
2023-05-05T00:57:05.602Z,4.25
2023-05-05T00:59:34.949Z,5.15
2023-05-05T01:02:03.232Z,6.72
2023-05-05T01:04:31.492Z,5.32
2023-05-05T01:07:14.900Z,6.07
2023-05-05T01:09:56.149Z,5.57
2023-05-05T01:13:04.359Z,4.95
2023-05-05T01:15:39.695Z,6.95
2023-05-05T01:18:07.916Z,8.68
2023-05-05T01:21:01.870Z,9.57
2023-05-05T01:23:57.796Z,9.20
2023-05-05T01:26:38.665Z,9.75
2023-05-05T01:29:16.080Z,10.52
2023-05-05T01:32:02.126Z,8.68
2023-05-05T01:34:36.311Z,6.95
2023-05-05T01:37:22.616Z,7.40
2023-05-05T01:39:55.349Z,9.38
2023-05-05T01:42:26.346Z,9.18
2023-05-05T01:44:56.916Z,9.05
2023-05-05T01:47:27.186Z,6.40
2023-05-05T01:49:55.595Z,6.78
2023-05-05T01:52:24.690Z,7.03
2023-05-05T01:54:55.136Z,19.23
2023-05-05T01:57:26.022Z,25.17
2023-05-05T01:59:55.917Z,26.00
2023-05-05T02:02:26.457Z,24.75
2023-05-05T02:04:56.360Z,26.88
2023-05-05T02:07:25.013Z,24.27
2023-05-05T02:09:54.763Z,24.25
2023-05-05T02:12:24.291Z,30.95
2023-05-05T02:14:53.734Z,29.50
2023-05-05T02:17:23.693Z,28.27
2023-05-05T02:19:53.657Z,28.45
2023-05-05T02:22:21.984Z,27.27
2023-05-05T02:24:50.134Z,27.25
2023-05-05T02:27:23.639Z,34.25
2023-05-05T02:29:57.558Z,35.65
2023-05-05T02:32:39.931Z,38.05
2023-05-05T02:35:29.273Z,31.05
2023-05-05T02:38:02.306Z,33.10
2023-05-05T02:40:36.068Z,37.60
2023-05-05T02:43:10.724Z,36.22
2023-05-05T02:45:39.535Z,32.47
2023-05-05T02:48:07.736Z,29.75
2023-05-05T02:53:16.793Z,27.85
2023-05-05T02:55:54.272Z,27.13
2023-05-05T02:58:31.003Z,25.08
2023-05-05T03:01:28.744Z,20.83
2023-05-05T03:04:08.814Z,24.38
2023-05-05T03:06:43.958Z,19.40
2023-05-05T03:09:33.576Z,19.95
2023-05-05T03:12:10.405Z,18.58
2023-05-05T03:14:54.686Z,18.63
2023-05-05T03:19:52.450Z,13.15
2023-05-05T03:22:21.159Z,14.77
2023-05-05T03:24:52.253Z,12.82
2023-05-05T03:27:24.323Z,12.63
2023-05-05T03:29:52.858Z,13.73
2023-05-05T03:32:21.900Z,12.35
2023-05-05T03:34:51.888Z,12.95
2023-05-05T03:37:26.730Z,12.68
2023-05-05T03:39:55.333Z,14.05
2023-05-05T03:42:23.575Z,12.98
2023-05-05T03:44:53.877Z,13.15
2023-05-05T03:47:23.645Z,13.07
2023-05-05T03:49:52.791Z,13.52
2023-05-05T03:52:20.905Z,14.90
2023-05-05T03:54:49.207Z,16.15
2023-05-05T03:57:17.295Z,16.25
2023-05-05T03:59:45.388Z,15.38
2023-05-05T04:02:13.875Z,16.98
2023-05-05T04:04:42.119Z,15.88
2023-05-05T04:07:10.321Z,16.95
2023-05-05T04:09:39.510Z,16.10
2023-05-05T04:12:08.335Z,17.77
2023-05-05T04:14:36.570Z,15.93
2023-05-05T04:17:04.862Z,16.17
2023-05-05T04:19:33.955Z,16.05
2023-05-05T04:22:04.050Z,17.15
2023-05-05T04:24:32.363Z,14.95
2023-05-05T04:27:00.556Z,14.15
2023-05-05T04:29:30.335Z,13.38
2023-05-05T04:31:59.321Z,13.38
2023-05-05T04:34:27.510Z,12.07
2023-05-05T04:36:55.912Z,10.75
2023-05-05T04:39:24.168Z,11.32
2023-05-05T04:41:52.587Z,11.27
2023-05-05T04:44:20.770Z,10.35
2023-05-05T04:46:48.995Z,10.95
2023-05-05T04:49:17.336Z,10.98
2023-05-05T04:51:45.508Z,12.38
2023-05-05T04:54:13.605Z,13.73
2023-05-05T04:56:41.853Z,11.70
2023-05-05T04:59:10.613Z,12.05
2023-05-05T05:01:38.881Z,12.00
2023-05-05T05:04:07.480Z,11.00
2023-05-05T05:06:36.629Z,11.60
2023-05-05T05:09:04.894Z,11.70
2023-05-05T05:11:33.044Z,12.68
2023-05-05T05:14:01.784Z,10.50
2023-05-05T05:16:30.817Z,10.93
2023-05-05T05:19:01.355Z,15.10
2023-05-05T05:21:31.083Z,11.50
2023-05-05T05:23:59.313Z,11.98
2023-05-05T05:26:28.386Z,11.60
2023-05-05T05:28:56.515Z,9.95
2023-05-05T05:31:25.404Z,9.20
2023-05-05T05:33:53.642Z,10.55
2023-05-05T05:36:22.005Z,12.07
2023-05-05T05:38:50.427Z,11.02
2023-05-05T05:41:19.072Z,13.63
2023-05-05T05:43:47.110Z,11.98
2023-05-05T05:46:15.567Z,11.60
2023-05-05T05:48:44.192Z,12.20
2023-05-05T05:51:12.461Z,13.25
2023-05-05T05:53:40.544Z,11.45
2023-05-05T05:56:10.317Z,11.43
2023-05-05T05:58:39.066Z,10.02
2023-05-05T06:01:08.278Z,10.45
2023-05-05T06:03:37.198Z,10.73
2023-05-05T06:06:06.011Z,11.85
2023-05-05T06:08:34.526Z,10.15
2023-05-05T06:11:02.788Z,9.68
2023-05-05T06:13:30.981Z,10.15
2023-05-05T06:15:59.325Z,12.10
2023-05-05T06:18:27.734Z,7.10
2023-05-05T06:20:56.080Z,10.70
2023-05-05T06:23:28.258Z,9.57
2023-05-05T06:26:01.869Z,10.77
2023-05-05T06:28:30.046Z,9.43
2023-05-05T06:30:58.159Z,10.88
2023-05-05T06:33:26.450Z,11.02
2023-05-05T06:35:54.715Z,10.00
2023-05-05T06:38:22.901Z,9.20
2023-05-05T06:40:51.075Z,9.50
2023-05-05T06:43:19.285Z,11.77
2023-05-05T06:45:54.188Z,10.63
2023-05-05T06:48:22.339Z,10.57
2023-05-05T06:50:50.636Z,13.02
2023-05-05T06:53:18.871Z,11.70
2023-05-05T06:55:48.596Z,12.43
2023-05-05T06:58:16.749Z,14.85
2023-05-05T07:00:44.925Z,15.32
2023-05-05T07:03:13.355Z,16.85
2023-05-05T07:05:41.568Z,18.20
2023-05-05T07:08:09.914Z,21.92
2023-05-05T07:10:38.185Z,17.85
2023-05-05T07:13:07.770Z,18.05
2023-05-05T07:15:36.215Z,15.00
2023-05-05T07:18:04.408Z,16.38
2023-05-05T07:20:32.733Z,18.70
2023-05-05T07:23:00.912Z,17.55
2023-05-05T07:25:29.239Z,16.02
2023-05-05T07:27:57.498Z,18.60
2023-05-05T07:30:26.177Z,18.17
2023-05-05T07:32:55.027Z,16.27
2023-05-05T07:35:23.939Z,14.13
2023-05-05T07:37:52.104Z,16.10
2023-05-05T07:40:20.273Z,15.80
2023-05-05T07:42:48.515Z,18.42
2023-05-05T07:45:16.649Z,17.95
2023-05-05T07:47:44.798Z,15.80
2023-05-05T07:50:13.162Z,12.65
2023-05-05T07:52:46.492Z,12.55
2023-05-05T07:55:18.330Z,12.68
2023-05-05T07:57:46.388Z,11.05
2023-05-05T08:00:15.115Z,10.35
2023-05-05T08:02:43.415Z,10.35
2023-05-05T08:05:12.454Z,10.10
2023-05-05T08:07:40.720Z,9.38
2023-05-05T08:10:11.288Z,9.50
2023-05-05T08:12:40.274Z,7.63
2023-05-05T08:15:09.103Z,8.95
2023-05-05T08:17:52.706Z,8.32
2023-05-05T08:20:21.696Z,7.85
2023-05-05T08:22:50.886Z,6.43
2023-05-05T08:25:20.721Z,7.43
2023-05-05T08:27:48.995Z,6.93
2023-05-05T08:30:17.284Z,7.88
2023-05-05T08:32:45.429Z,6.82
2023-05-05T08:35:13.867Z,6.90
2023-05-05T08:37:42.258Z,7.45
2023-05-05T08:40:13.409Z,6.00
2023-05-05T08:42:42.195Z,7.55
2023-05-05T08:45:11.390Z,6.95
2023-05-05T08:47:40.416Z,8.40
2023-05-05T08:50:11.384Z,6.35
2023-05-05T08:52:42.853Z,7.45
2023-05-05T08:55:34.455Z,7.65
2023-05-05T08:58:03.422Z,7.78
2023-05-05T09:00:32.349Z,5.95
2023-05-05T09:03:01.974Z,7.00
2023-05-05T09:05:30.915Z,5.22
2023-05-05T09:08:00.016Z,4.43
2023-05-05T09:10:31.878Z,4.93
2023-05-05T09:13:00.312Z,6.45
2023-05-05T09:15:28.525Z,4.68
2023-05-05T09:18:01.267Z,7.13
2023-05-05T09:20:34.683Z,4.93
2023-05-05T09:23:10.474Z,8.95
2023-05-05T09:25:39.509Z,5.00
2023-05-05T09:28:16.072Z,5.15
2023-05-05T09:30:46.585Z,5.47
2023-05-05T09:36:08.952Z,3.17
2023-05-05T09:38:37.263Z,4.00
2023-05-05T09:41:05.589Z,4.65
2023-05-05T09:43:52.649Z,4.35
2023-05-05T09:46:21.210Z,4.45
2023-05-05T09:48:49.479Z,3.38
2023-05-05T09:51:28.969Z,4.50
2023-05-05T09:53:57.723Z,4.97
2023-05-05T09:56:40.909Z,4.15
2023-05-05T09:59:12.802Z,3.90
2023-05-05T10:01:41.689Z,4.50
2023-05-05T10:04:32.067Z,4.25
2023-05-05T10:07:00.331Z,4.75
2023-05-05T10:09:28.955Z,4.65
2023-05-05T10:11:58.441Z,4.15
2023-05-05T10:14:29.455Z,3.63
2023-05-05T10:17:01.173Z,3.70
2023-05-05T10:19:33.401Z,5.72
2023-05-05T10:22:04.528Z,5.38
2023-05-05T10:24:50.975Z,4.82
2023-05-05T10:27:24.852Z,5.65
2023-05-05T10:30:06.575Z,5.82
2023-05-05T10:33:18.245Z,5.70
2023-05-05T10:35:54.042Z,5.00
2023-05-05T10:38:24.839Z,5.30
2023-05-05T10:40:55.697Z,4.65
2023-05-05T10:43:25.004Z,5.53
2023-05-05T10:45:54.605Z,6.20
2023-05-05T10:48:36.612Z,4.28
2023-05-05T10:51:13.215Z,5.43
2023-05-05T10:54:05.424Z,5.28
2023-05-05T10:56:36.129Z,4.18
2023-05-05T10:59:04.377Z,4.88
2023-05-05T11:01:36.586Z,5.07
2023-05-05T11:04:18.838Z,4.55
2023-05-05T11:07:10.233Z,5.40
2023-05-05T11:09:56.819Z,6.05
2023-05-05T11:12:25.291Z,5.45
2023-05-05T11:15:27.255Z,5.07
2023-05-05T11:17:57.552Z,5.70
2023-05-05T11:20:37.825Z,5.60
2023-05-05T11:23:06.191Z,4.18
2023-05-05T11:25:37.764Z,5.28
2023-05-05T11:28:10.676Z,7.32
2023-05-05T11:30:58.047Z,7.03
2023-05-05T11:33:39.732Z,5.47
2023-05-05T11:36:09.779Z,5.18
2023-05-05T11:38:59.232Z,5.43
2023-05-05T11:41:33.639Z,4.97
2023-05-05T11:44:29.748Z,4.60
2023-05-05T11:47:03.483Z,5.22
2023-05-05T11:49:39.774Z,6.22
2023-05-05T11:52:09.420Z,5.63
2023-05-05T11:54:40.119Z,6.47
2023-05-05T11:57:08.642Z,5.38
2023-05-05T11:59:49.832Z,6.07
2023-05-05T12:02:19.900Z,5.82
2023-05-05T12:04:49.352Z,5.88
2023-05-05T12:07:18.616Z,5.95
2023-05-05T12:09:48.770Z,5.15
2023-05-05T12:12:17.749Z,5.60
2023-05-05T12:14:47.823Z,5.35
2023-05-05T12:17:16.291Z,5.55
2023-05-05T12:20:02.431Z,5.45
2023-05-05T12:22:30.765Z,6.20
2023-05-05T12:25:04.332Z,5.13
2023-05-05T12:27:32.747Z,6.78
2023-05-05T12:30:15.641Z,5.95
2023-05-05T12:32:44.989Z,7.35
2023-05-05T12:35:13.956Z,5.80
2023-05-05T12:37:43.044Z,6.72
2023-05-05T12:40:50.334Z,5.15
2023-05-05T12:43:29.901Z,5.65
2023-05-05T12:46:09.789Z,5.35
2023-05-05T12:48:39.504Z,5.05
2023-05-05T12:51:20.020Z,5.95
2023-05-05T12:53:50.587Z,5.55
2023-05-05T12:56:32.650Z,5.95
2023-05-05T12:59:02.375Z,5.22
2023-05-05T13:01:31.249Z,5.63
2023-05-05T13:04:05.700Z,6.47
2023-05-05T13:06:33.941Z,5.95
2023-05-05T13:09:02.232Z,4.32
2023-05-05T13:11:30.553Z,4.63
2023-05-05T13:13:58.729Z,5.28
2023-05-05T13:16:27.057Z,5.53
2023-05-05T13:18:55.242Z,4.93
2023-05-05T13:21:23.483Z,5.28
2023-05-05T13:23:51.792Z,9.23
2023-05-05T13:26:19.998Z,8.95
2023-05-05T13:28:48.302Z,7.28
2023-05-05T13:31:16.608Z,6.22
2023-05-05T13:33:44.824Z,6.72
2023-05-05T13:36:13.258Z,6.30
2023-05-05T13:38:41.395Z,5.53
2023-05-05T13:41:09.620Z,6.13
2023-05-05T13:43:37.866Z,5.82
2023-05-05T13:46:18.709Z,7.88
2023-05-05T13:48:48.080Z,4.80
2023-05-05T13:51:16.375Z,6.55
2023-05-05T13:53:44.456Z,5.90
2023-05-05T13:56:12.800Z,5.85
2023-05-05T13:58:41.140Z,6.03
2023-05-05T14:01:10.839Z,5.43
2023-05-05T14:03:39.190Z,6.63
2023-05-05T14:06:07.987Z,7.28
2023-05-05T14:08:36.263Z,5.10
2023-05-05T14:11:04.532Z,5.85
2023-05-05T14:13:33.042Z,6.70
2023-05-05T14:16:02.348Z,7.07
2023-05-05T14:18:30.558Z,6.07
2023-05-05T14:20:58.903Z,6.28
2023-05-05T14:23:27.145Z,4.85
2023-05-05T14:25:55.511Z,4.90
2023-05-05T14:28:23.590Z,6.20
2023-05-05T14:30:51.804Z,4.68
2023-05-05T14:33:20.086Z,5.43
2023-05-05T14:35:48.292Z,6.03
2023-05-05T14:38:16.478Z,7.25
2023-05-05T14:40:44.672Z,5.35
2023-05-05T14:43:12.926Z,6.22
2023-05-05T14:45:41.146Z,6.07
2023-05-05T14:48:09.427Z,6.45
2023-05-05T14:50:37.979Z,11.15
2023-05-05T14:53:06.237Z,6.72
2023-05-05T14:55:34.651Z,5.78
2023-05-05T14:58:05.493Z,6.47
2023-05-05T15:00:33.754Z,6.53
2023-05-05T15:03:01.993Z,5.53
2023-05-05T15:05:30.359Z,5.65
2023-05-05T15:08:01.504Z,5.32
2023-05-05T15:10:29.928Z,5.80
2023-05-05T15:12:58.145Z,6.43
2023-05-05T15:15:26.329Z,8.07
2023-05-05T15:17:54.665Z,7.82
2023-05-05T15:20:23.061Z,6.22
2023-05-05T15:22:51.118Z,6.10
2023-05-05T15:25:19.472Z,5.65
2023-05-05T15:27:47.721Z,9.27
2023-05-05T15:30:19.042Z,8.07
2023-05-05T15:32:47.226Z,6.38
2023-05-05T15:38:42.571Z,5.75
2023-05-05T15:41:10.995Z,4.38
2023-05-05T15:43:39.070Z,4.70
2023-05-05T15:46:07.365Z,5.82
2023-05-05T15:48:35.646Z,6.28
2023-05-05T15:51:03.772Z,6.80
2023-05-05T15:53:33.270Z,6.93
2023-05-05T15:56:01.675Z,5.25
2023-05-05T15:58:29.704Z,4.72
2023-05-05T16:00:58.019Z,5.60
2023-05-05T16:03:26.331Z,4.03
2023-05-05T16:05:54.811Z,4.85
2023-05-05T16:08:23.168Z,5.72
2023-05-05T16:10:51.214Z,5.05
2023-05-05T16:13:19.541Z,3.25
2023-05-05T16:15:48.145Z,3.67
2023-05-05T16:18:16.232Z,4.97
2023-05-05T16:20:44.570Z,3.90
2023-05-05T16:23:12.810Z,4.22
2023-05-05T16:25:41.012Z,4.30
2023-05-05T16:28:09.072Z,4.70
2023-05-05T16:30:37.506Z,5.25
2023-05-05T16:33:05.647Z,6.07
2023-05-05T16:35:33.935Z,7.10
2023-05-05T16:38:02.233Z,7.32
2023-05-05T16:40:30.764Z,7.50
2023-05-05T16:42:58.876Z,5.70
2023-05-05T16:45:27.171Z,6.68
2023-05-05T16:47:55.474Z,8.50
2023-05-05T16:50:24.136Z,8.13
2023-05-05T16:52:52.348Z,9.40
2023-05-05T16:55:20.703Z,8.18
2023-05-05T16:57:48.807Z,13.27
2023-05-05T17:00:17.328Z,12.13
2023-05-05T17:02:45.421Z,11.23
2023-05-05T17:05:13.780Z,12.10
2023-05-05T17:07:42.039Z,12.15
2023-05-05T17:10:10.817Z,10.95
2023-05-05T17:12:38.923Z,9.25
2023-05-05T17:15:08.466Z,10.57
2023-05-05T17:17:37.090Z,8.95
2023-05-05T17:20:05.675Z,8.77
2023-05-05T17:22:34.012Z,8.77
2023-05-05T17:25:02.112Z,9.35
2023-05-05T17:27:30.293Z,11.68
2023-05-05T17:29:58.483Z,7.80
2023-05-05T17:32:26.771Z,7.40
2023-05-05T17:34:54.930Z,8.65
2023-05-05T17:37:23.410Z,8.88
2023-05-05T17:39:51.476Z,8.85
2023-05-05T17:42:19.641Z,6.65
2023-05-05T17:44:47.861Z,7.35
2023-05-05T17:47:16.384Z,8.32
2023-05-05T17:49:44.444Z,9.82
2023-05-05T17:52:12.693Z,7.72
2023-05-05T17:54:40.844Z,8.77
2023-05-05T17:57:09.725Z,11.98
2023-05-05T17:59:38.229Z,10.98
2023-05-05T18:02:06.614Z,9.35
2023-05-05T18:04:36.606Z,11.65
2023-05-05T18:07:05.436Z,13.90
2023-05-05T18:09:33.794Z,10.32
2023-05-05T18:12:02.353Z,10.85
2023-05-05T18:14:30.573Z,10.38
2023-05-05T18:16:58.832Z,11.48
2023-05-05T18:19:27.066Z,13.13
2023-05-05T18:21:55.613Z,11.57
2023-05-05T18:24:24.521Z,19.00
2023-05-05T18:26:53.650Z,11.70
2023-05-05T18:29:23.544Z,11.43
2023-05-05T18:31:52.544Z,12.13
2023-05-05T18:34:21.138Z,14.48
2023-05-05T18:36:51.975Z,15.15
2023-05-05T18:39:20.496Z,13.75
2023-05-05T18:41:48.622Z,13.68
2023-05-05T18:44:17.171Z,24.38
2023-05-05T18:46:45.451Z,19.48
2023-05-05T18:49:13.994Z,29.38
2023-05-05T18:51:42.256Z,14.25
2023-05-05T18:54:10.759Z,12.38
2023-05-05T18:56:38.962Z,13.50
2023-05-05T18:59:07.229Z,10.93
2023-05-05T19:01:35.332Z,12.52
2023-05-05T19:04:05.455Z,11.70
2023-05-05T19:06:38.529Z,9.80
2023-05-05T19:09:07.010Z,10.45
2023-05-05T19:11:35.103Z,11.95
2023-05-05T19:14:03.384Z,10.98
2023-05-05T19:16:31.684Z,10.48
2023-05-05T19:18:59.840Z,10.25
2023-05-05T19:21:28.995Z,11.93
2023-05-05T19:23:57.344Z,10.18
2023-05-05T19:26:25.577Z,9.13
2023-05-05T19:28:53.835Z,8.77
2023-05-05T19:31:21.967Z,9.45
2023-05-05T19:33:50.273Z,9.05
2023-05-05T19:36:18.343Z,8.10
2023-05-05T19:38:46.816Z,6.60
2023-05-05T19:41:15.074Z,6.85
2023-05-05T19:43:43.222Z,10.30
2023-05-05T19:46:11.295Z,8.52
2023-05-05T19:48:39.693Z,7.03
2023-05-05T19:51:08.022Z,6.00
2023-05-05T19:53:36.214Z,5.05
2023-05-05T19:56:04.682Z,8.77
2023-05-05T19:58:53.634Z,7.75
2023-05-05T20:01:22.500Z,5.18
2023-05-05T20:03:50.892Z,4.55
2023-05-05T20:06:19.268Z,5.75
2023-05-05T20:08:47.691Z,5.70
2023-05-05T20:11:17.285Z,4.65
2023-05-05T20:13:45.693Z,5.85
2023-05-05T20:16:14.210Z,6.43
2023-05-05T20:18:45.286Z,7.85
2023-05-05T20:21:13.582Z,6.78
2023-05-05T20:23:41.849Z,5.40
2023-05-05T20:26:10.060Z,5.22
2023-05-05T20:28:38.592Z,5.45
2023-05-05T20:31:07.626Z,5.32
2023-05-05T20:33:35.994Z,6.80
2023-05-05T20:36:04.392Z,6.57
2023-05-05T20:38:32.791Z,7.05
2023-05-05T20:41:01.146Z,9.93
2023-05-05T20:43:29.426Z,6.75
2023-05-05T20:45:57.654Z,7.00
2023-05-05T20:48:25.853Z,6.35
2023-05-05T20:50:54.251Z,8.32
2023-05-05T20:53:22.577Z,6.57
2023-05-05T20:55:52.675Z,8.50
2023-05-05T20:58:21.173Z,7.90
2023-05-05T21:02:40.687Z,9.95
2023-05-05T21:05:09.625Z,6.97
2023-05-05T21:07:37.869Z,8.98
2023-05-05T21:10:07.278Z,10.95
2023-05-05T21:12:35.872Z,10.60
2023-05-05T21:15:04.474Z,10.18
2023-05-05T21:17:33.045Z,9.52
2023-05-05T21:20:01.321Z,11.90
2023-05-05T21:22:29.620Z,10.75
2023-05-05T21:25:17.002Z,11.60
2023-05-05T21:27:45.804Z,16.60
2023-05-05T21:30:14.379Z,17.77
2023-05-05T21:32:43.028Z,19.85
2023-05-05T21:35:11.402Z,21.05
2023-05-05T21:37:40.531Z,15.50
2023-05-05T21:40:09.940Z,12.90
2023-05-05T21:42:38.278Z,13.90
2023-05-05T21:45:07.007Z,16.17
2023-05-05T21:47:35.460Z,14.95
2023-05-05T21:50:04.004Z,13.15
2023-05-05T21:52:32.295Z,13.32
2023-05-05T21:55:00.691Z,12.20
2023-05-05T21:57:28.985Z,11.75
2023-05-05T21:59:57.118Z,10.98
2023-05-05T22:02:25.611Z,11.48
2023-05-05T22:04:54.098Z,12.43
2023-05-05T22:07:22.343Z,11.05
2023-05-05T22:09:50.547Z,9.80
2023-05-05T22:12:19.037Z,10.25
2023-05-05T22:14:47.246Z,13.85
2023-05-05T22:17:15.473Z,11.40
2023-05-05T22:19:43.682Z,10.63
2023-05-05T22:22:11.871Z,9.73
2023-05-05T22:24:40.261Z,10.57
2023-05-05T22:27:08.390Z,10.57
2023-05-05T22:29:36.700Z,11.95
2023-05-05T22:32:05.323Z,13.15
2023-05-05T22:34:34.791Z,12.82
2023-05-05T22:37:03.353Z,13.80
2023-05-05T22:39:31.581Z,10.60
2023-05-05T22:41:59.740Z,12.20
2023-05-05T22:44:28.054Z,12.45
2023-05-05T22:46:56.523Z,10.20
2023-05-05T22:49:24.908Z,9.73
2023-05-05T22:51:53.086Z,10.93
2023-05-05T22:54:21.480Z,8.27
2023-05-05T22:56:50.279Z,11.23
2023-05-05T22:59:18.511Z,10.13
2023-05-05T23:01:46.996Z,10.15
2023-05-05T23:04:15.175Z,10.80
2023-05-05T23:06:43.374Z,10.30
2023-05-05T23:09:11.880Z,11.32
2023-05-05T23:11:39.976Z,10.93
2023-05-05T23:14:08.351Z,11.18
2023-05-05T23:16:36.624Z,10.77
2023-05-05T23:19:04.865Z,11.45
2023-05-05T23:21:36.237Z,10.80
2023-05-05T23:24:10.155Z,12.27
2023-05-05T23:26:40.066Z,13.48
2023-05-05T23:29:08.312Z,14.18
2023-05-05T23:31:36.675Z,14.05
2023-05-05T23:34:04.752Z,12.63
2023-05-05T23:36:32.905Z,12.52
2023-05-05T23:39:01.225Z,13.57
2023-05-05T23:41:29.305Z,13.40
2023-05-05T23:43:57.699Z,14.73
2023-05-05T23:46:25.992Z,15.60
2023-05-05T23:48:54.093Z,13.63
2023-05-05T23:51:22.516Z,13.13
2023-05-05T23:53:50.680Z,13.88
2023-05-05T23:56:18.835Z,14.98
2023-05-05T23:58:46.934Z,14.80
